sensor_id;sensor_type;location;lat;lon;timestamp;temperature;humidity
70068;DHT22;57425;51.616;6.680;2023-05-17T00:00:07;14.50;92.80
70068;DHT22;57425;51.616;6.680;2023-05-17T00:02:34;14.40;92.80
70068;DHT22;57425;51.616;6.680;2023-05-17T00:05:00;14.50;92.80
70068;DHT22;57425;51.616;6.680;2023-05-17T00:07:25;14.40;92.80
70068;DHT22;57425;51.616;6.680;2023-05-17T00:09:51;14.50;92.80
70068;DHT22;57425;51.616;6.680;2023-05-17T00:12:17;14.40;92.80
70068;DHT22;57425;51.616;6.680;2023-05-17T00:14:42;14.40;92.80
70068;DHT22;57425;51.616;6.680;2023-05-17T00:17:08;14.50;92.80
70068;DHT22;57425;51.616;6.680;2023-05-17T00:19:33;14.40;92.90
70068;DHT22;57425;51.616;6.680;2023-05-17T00:21:59;14.40;92.90
70068;DHT22;57425;51.616;6.680;2023-05-17T00:24:26;14.30;92.90
70068;DHT22;57425;51.616;6.680;2023-05-17T00:26:51;14.30;92.90
70068;DHT22;57425;51.616;6.680;2023-05-17T00:29:17;14.40;93.10
70068;DHT22;57425;51.616;6.680;2023-05-17T00:41:27;14.40;92.90
70068;DHT22;57425;51.616;6.680;2023-05-17T00:43:52;14.20;64.30
70068;DHT22;57425;51.616;6.680;2023-05-17T00:46:18;14.20;64.50
70068;DHT22;57425;51.616;6.680;2023-05-17T00:48:43;14.10;64.50
70068;DHT22;57425;51.616;6.680;2023-05-17T00:51:10;14.10;64.60
70068;DHT22;57425;51.616;6.680;2023-05-17T00:53:36;14.10;65.20
70068;DHT22;57425;51.616;6.680;2023-05-17T00:56:02;14.10;64.70
70068;DHT22;57425;51.616;6.680;2023-05-17T00:58:29;14.10;64.70
70068;DHT22;57425;51.616;6.680;2023-05-17T01:00:55;14.10;64.80
70068;DHT22;57425;51.616;6.680;2023-05-17T01:03:20;14.10;65.50
70068;DHT22;57425;51.616;6.680;2023-05-17T01:05:50;14.20;67.60
70068;DHT22;57425;51.616;6.680;2023-05-17T01:08:16;14.20;68.20
70068;DHT22;57425;51.616;6.680;2023-05-17T01:11:05;14.00;64.90
70068;DHT22;57425;51.616;6.680;2023-05-17T01:16:19;14.00;65.00
70068;DHT22;57425;51.616;6.680;2023-05-17T01:26:59;13.90;64.60
70068;DHT22;57425;51.616;6.680;2023-05-17T01:29:27;13.90;65.20
70068;DHT22;57425;51.616;6.680;2023-05-17T01:31:53;13.80;65.20
70068;DHT22;57425;51.616;6.680;2023-05-17T01:34:24;13.80;65.20
70068;DHT22;57425;51.616;6.680;2023-05-17T01:36:50;13.80;65.90
70068;DHT22;57425;51.616;6.680;2023-05-17T01:39:17;13.80;65.30
70068;DHT22;57425;51.616;6.680;2023-05-17T01:41:46;13.80;65.40
70068;DHT22;57425;51.616;6.680;2023-05-17T01:47:01;13.80;65.50
70068;DHT22;57425;51.616;6.680;2023-05-17T01:49:31;13.80;65.40
70068;DHT22;57425;51.616;6.680;2023-05-17T01:54:45;13.70;65.40
70068;DHT22;57425;51.616;6.680;2023-05-17T01:57:14;13.70;65.30
70068;DHT22;57425;51.616;6.680;2023-05-17T01:59:41;13.70;65.20
70068;DHT22;57425;51.616;6.680;2023-05-17T02:02:08;13.70;65.10
70068;DHT22;57425;51.616;6.680;2023-05-17T02:04:34;13.60;65.00
70068;DHT22;57425;51.616;6.680;2023-05-17T02:07:01;13.60;65.00
70068;DHT22;57425;51.616;6.680;2023-05-17T02:09:27;13.60;64.90
70068;DHT22;57425;51.616;6.680;2023-05-17T02:11:53;13.60;64.90
70068;DHT22;57425;51.616;6.680;2023-05-17T02:14:18;13.60;64.90
70068;DHT22;57425;51.616;6.680;2023-05-17T02:16:44;13.50;64.80
70068;DHT22;57425;51.616;6.680;2023-05-17T02:19:10;13.60;64.80
70068;DHT22;57425;51.616;6.680;2023-05-17T02:21:37;13.50;64.70
70068;DHT22;57425;51.616;6.680;2023-05-17T02:24:03;13.50;64.60
70068;DHT22;57425;51.616;6.680;2023-05-17T02:26:29;13.50;64.60
70068;DHT22;57425;51.616;6.680;2023-05-17T02:28:56;13.50;64.60
70068;DHT22;57425;51.616;6.680;2023-05-17T02:31:22;13.70;64.60
70068;DHT22;57425;51.616;6.680;2023-05-17T02:33:51;13.50;64.50
70068;DHT22;57425;51.616;6.680;2023-05-17T02:36:17;13.40;64.50
70068;DHT22;57425;51.616;6.680;2023-05-17T02:38:42;13.40;64.50
70068;DHT22;57425;51.616;6.680;2023-05-17T02:41:08;13.40;64.40
70068;DHT22;57425;51.616;6.680;2023-05-17T02:43:34;13.40;64.40
70068;DHT22;57425;51.616;6.680;2023-05-17T02:45:59;13.40;64.30
70068;DHT22;57425;51.616;6.680;2023-05-17T02:48:25;13.40;64.20
70068;DHT22;57425;51.616;6.680;2023-05-17T02:50:51;13.40;64.30
70068;DHT22;57425;51.616;6.680;2023-05-17T02:53:17;13.30;64.20
70068;DHT22;57425;51.616;6.680;2023-05-17T02:55:43;13.30;64.20
70068;DHT22;57425;51.616;6.680;2023-05-17T02:58:09;13.30;64.20
70068;DHT22;57425;51.616;6.680;2023-05-17T03:00:35;13.30;64.20
70068;DHT22;57425;51.616;6.680;2023-05-17T03:03:01;13.30;64.90
70068;DHT22;57425;51.616;6.680;2023-05-17T03:05:26;13.30;64.40
70068;DHT22;57425;51.616;6.680;2023-05-17T03:07:52;13.20;64.50
70068;DHT22;57425;51.616;6.680;2023-05-17T03:10:18;13.20;64.70
70068;DHT22;57425;51.616;6.680;2023-05-17T03:12:43;13.20;64.80
70068;DHT22;57425;51.616;6.680;2023-05-17T03:15:10;13.20;65.00
70068;DHT22;57425;51.616;6.680;2023-05-17T03:17:36;13.20;65.20
70068;DHT22;57425;51.616;6.680;2023-05-17T03:20:01;13.20;65.30
70068;DHT22;57425;51.616;6.680;2023-05-17T03:22:27;13.20;65.60
70068;DHT22;57425;51.616;6.680;2023-05-17T03:24:53;13.20;65.70
70068;DHT22;57425;51.616;6.680;2023-05-17T03:27:18;13.20;66.00
70068;DHT22;57425;51.616;6.680;2023-05-17T03:29:44;13.20;66.00
70068;DHT22;57425;51.616;6.680;2023-05-17T03:32:10;13.20;66.20
70068;DHT22;57425;51.616;6.680;2023-05-17T03:34:35;13.20;66.30
70068;DHT22;57425;51.616;6.680;2023-05-17T03:37:01;13.20;66.30
70068;DHT22;57425;51.616;6.680;2023-05-17T03:39:26;13.20;66.40
70068;DHT22;57425;51.616;6.680;2023-05-17T03:41:52;13.10;66.60
70068;DHT22;57425;51.616;6.680;2023-05-17T03:44:18;13.10;66.80
70068;DHT22;57425;51.616;6.680;2023-05-17T03:46:43;13.10;66.90
70068;DHT22;57425;51.616;6.680;2023-05-17T03:49:09;13.10;67.00
70068;DHT22;57425;51.616;6.680;2023-05-17T03:51:35;13.10;67.10
70068;DHT22;57425;51.616;6.680;2023-05-17T03:54:00;13.10;67.10
70068;DHT22;57425;51.616;6.680;2023-05-17T03:56:26;13.10;67.20
70068;DHT22;57425;51.616;6.680;2023-05-17T03:58:52;13.10;67.40
70068;DHT22;57425;51.616;6.680;2023-05-17T04:01:17;13.10;67.40
70068;DHT22;57425;51.616;6.680;2023-05-17T04:03:45;13.10;67.40
70068;DHT22;57425;51.616;6.680;2023-05-17T04:06:12;13.10;67.50
70068;DHT22;57425;51.616;6.680;2023-05-17T04:08:38;13.10;67.50
70068;DHT22;57425;51.616;6.680;2023-05-17T04:11:04;13.00;67.50
70068;DHT22;57425;51.616;6.680;2023-05-17T04:13:41;13.10;67.60
70068;DHT22;57425;51.616;6.680;2023-05-17T04:16:07;13.10;67.80
70068;DHT22;57425;51.616;6.680;2023-05-17T04:18:34;13.10;67.70
70068;DHT22;57425;51.616;6.680;2023-05-17T04:21:00;13.00;67.80
70068;DHT22;57425;51.616;6.680;2023-05-17T04:23:26;13.00;67.80
70068;DHT22;57425;51.616;6.680;2023-05-17T04:25:53;13.00;67.80
70068;DHT22;57425;51.616;6.680;2023-05-17T04:28:18;13.10;67.90
70068;DHT22;57425;51.616;6.680;2023-05-17T04:30:46;13.00;68.00
70068;DHT22;57425;51.616;6.680;2023-05-17T04:33:12;13.00;68.00
70068;DHT22;57425;51.616;6.680;2023-05-17T04:35:40;13.00;68.10
70068;DHT22;57425;51.616;6.680;2023-05-17T04:38:06;13.00;68.10
70068;DHT22;57425;51.616;6.680;2023-05-17T04:40:32;13.00;68.10
70068;DHT22;57425;51.616;6.680;2023-05-17T04:42:57;13.00;68.20
70068;DHT22;57425;51.616;6.680;2023-05-17T04:45:23;13.00;68.20
70068;DHT22;57425;51.616;6.680;2023-05-17T04:47:49;13.00;68.30
70068;DHT22;57425;51.616;6.680;2023-05-17T04:50:16;13.00;68.90
70068;DHT22;57425;51.616;6.680;2023-05-17T04:52:42;13.00;68.50
70068;DHT22;57425;51.616;6.680;2023-05-17T04:55:08;13.00;68.60
70068;DHT22;57425;51.616;6.680;2023-05-17T04:57:34;13.00;68.60
70068;DHT22;57425;51.616;6.680;2023-05-17T05:00:01;12.90;68.50
70068;DHT22;57425;51.616;6.680;2023-05-17T05:02:27;12.90;68.60
70068;DHT22;57425;51.616;6.680;2023-05-17T05:04:53;12.90;69.10
70068;DHT22;57425;51.616;6.680;2023-05-17T05:07:18;12.90;68.60
70068;DHT22;57425;51.616;6.680;2023-05-17T05:09:44;12.90;68.60
70068;DHT22;57425;51.616;6.680;2023-05-17T05:12:09;12.90;68.60
70068;DHT22;57425;51.616;6.680;2023-05-17T05:14:35;12.90;68.60
70068;DHT22;57425;51.616;6.680;2023-05-17T05:17:01;12.90;68.60
70068;DHT22;57425;51.616;6.680;2023-05-17T05:19:26;13.00;68.60
70068;DHT22;57425;51.616;6.680;2023-05-17T05:21:52;12.90;68.60
70068;DHT22;57425;51.616;6.680;2023-05-17T05:24:17;12.90;68.60
70068;DHT22;57425;51.616;6.680;2023-05-17T05:26:43;12.90;68.60
70068;DHT22;57425;51.616;6.680;2023-05-17T05:29:10;12.90;68.50
70068;DHT22;57425;51.616;6.680;2023-05-17T05:31:35;12.90;68.50
70068;DHT22;57425;51.616;6.680;2023-05-17T05:34:01;12.90;68.50
70068;DHT22;57425;51.616;6.680;2023-05-17T05:36:27;12.90;68.60
70068;DHT22;57425;51.616;6.680;2023-05-17T05:38:53;12.90;68.60
70068;DHT22;57425;51.616;6.680;2023-05-17T05:41:19;12.90;68.60
70068;DHT22;57425;51.616;6.680;2023-05-17T05:43:45;12.90;68.60
70068;DHT22;57425;51.616;6.680;2023-05-17T05:46:10;12.90;68.40
70068;DHT22;57425;51.616;6.680;2023-05-17T05:48:36;12.90;68.40
70068;DHT22;57425;51.616;6.680;2023-05-17T05:51:06;13.00;68.40
70068;DHT22;57425;51.616;6.680;2023-05-17T05:53:32;13.00;68.30
70068;DHT22;57425;51.616;6.680;2023-05-17T05:55:57;13.00;68.30
70068;DHT22;57425;51.616;6.680;2023-05-17T05:58:23;13.00;68.20
70068;DHT22;57425;51.616;6.680;2023-05-17T06:00:48;13.00;68.20
70068;DHT22;57425;51.616;6.680;2023-05-17T06:03:14;13.00;68.00
70068;DHT22;57425;51.616;6.680;2023-05-17T06:05:40;13.00;67.80
70068;DHT22;57425;51.616;6.680;2023-05-17T06:08:06;13.00;67.80
70068;DHT22;57425;51.616;6.680;2023-05-17T06:10:32;13.00;67.70
70068;DHT22;57425;51.616;6.680;2023-05-17T06:12:58;13.00;67.50
70068;DHT22;57425;51.616;6.680;2023-05-17T06:15:25;13.00;67.50
70068;DHT22;57425;51.616;6.680;2023-05-17T06:17:51;13.00;67.40
70068;DHT22;57425;51.616;6.680;2023-05-17T06:20:16;13.00;67.30
70068;DHT22;57425;51.616;6.680;2023-05-17T06:22:43;13.00;67.00
70068;DHT22;57425;51.616;6.680;2023-05-17T06:25:08;13.00;66.90
70068;DHT22;57425;51.616;6.680;2023-05-17T06:27:35;13.00;67.00
70068;DHT22;57425;51.616;6.680;2023-05-17T06:30:02;13.00;67.40
70068;DHT22;57425;51.616;6.680;2023-05-17T06:32:29;13.10;67.00
70068;DHT22;57425;51.616;6.680;2023-05-17T06:34:55;13.00;67.50
70068;DHT22;57425;51.616;6.680;2023-05-17T06:37:20;13.00;66.90
70068;DHT22;57425;51.616;6.680;2023-05-17T06:39:46;13.10;66.90
70068;DHT22;57425;51.616;6.680;2023-05-17T06:42:12;13.10;66.90
70068;DHT22;57425;51.616;6.680;2023-05-17T06:44:37;13.10;66.90
70068;DHT22;57425;51.616;6.680;2023-05-17T06:47:03;13.10;66.90
70068;DHT22;57425;51.616;6.680;2023-05-17T06:49:29;13.10;66.90
70068;DHT22;57425;51.616;6.680;2023-05-17T06:51:54;13.10;66.90
70068;DHT22;57425;51.616;6.680;2023-05-17T06:54:23;13.10;66.60
70068;DHT22;57425;51.616;6.680;2023-05-17T06:56:49;13.10;66.60
70068;DHT22;57425;51.616;6.680;2023-05-17T06:59:15;13.10;66.60
70068;DHT22;57425;51.616;6.680;2023-05-17T07:01:40;13.10;66.50
70068;DHT22;57425;51.616;6.680;2023-05-17T07:04:06;13.10;66.20
70068;DHT22;57425;51.616;6.680;2023-05-17T07:06:32;13.20;66.00
70068;DHT22;57425;51.616;6.680;2023-05-17T07:08:57;13.20;65.80
70068;DHT22;57425;51.616;6.680;2023-05-17T07:11:23;13.20;65.80
70068;DHT22;57425;51.616;6.680;2023-05-17T07:13:48;13.20;65.80
70068;DHT22;57425;51.616;6.680;2023-05-17T07:16:14;13.20;65.90
70068;DHT22;57425;51.616;6.680;2023-05-17T07:18:39;13.20;65.90
70068;DHT22;57425;51.616;6.680;2023-05-17T07:21:05;13.20;65.90
70068;DHT22;57425;51.616;6.680;2023-05-17T07:23:31;13.20;66.40
70068;DHT22;57425;51.616;6.680;2023-05-17T07:25:56;13.30;66.00
70068;DHT22;57425;51.616;6.680;2023-05-17T07:28:22;13.30;65.80
70068;DHT22;57425;51.616;6.680;2023-05-17T07:30:47;13.30;65.60
70068;DHT22;57425;51.616;6.680;2023-05-17T07:33:13;13.30;65.60
70068;DHT22;57425;51.616;6.680;2023-05-17T07:35:39;13.30;65.50
70068;DHT22;57425;51.616;6.680;2023-05-17T07:38:04;13.30;66.00
70068;DHT22;57425;51.616;6.680;2023-05-17T07:40:30;13.30;65.30
70068;DHT22;57425;51.616;6.680;2023-05-17T07:42:55;13.30;65.40
70068;DHT22;57425;51.616;6.680;2023-05-17T07:45:21;13.30;65.30
70068;DHT22;57425;51.616;6.680;2023-05-17T07:47:47;13.40;65.10
70068;DHT22;57425;51.616;6.680;2023-05-17T07:50:12;13.40;65.00
70068;DHT22;57425;51.616;6.680;2023-05-17T07:52:38;13.40;64.90
70068;DHT22;57425;51.616;6.680;2023-05-17T07:55:04;13.40;65.40
70068;DHT22;57425;51.616;6.680;2023-05-17T07:57:30;13.40;65.30
70068;DHT22;57425;51.616;6.680;2023-05-17T07:59:55;13.40;65.50
70068;DHT22;57425;51.616;6.680;2023-05-17T08:02:21;13.40;65.30
70068;DHT22;57425;51.616;6.680;2023-05-17T08:04:47;13.40;65.20
70068;DHT22;57425;51.616;6.680;2023-05-17T08:07:12;13.50;65.10
70068;DHT22;57425;51.616;6.680;2023-05-17T08:09:38;13.40;65.00
70068;DHT22;57425;51.616;6.680;2023-05-17T08:12:04;13.50;65.00
70068;DHT22;57425;51.616;6.680;2023-05-17T08:14:30;13.50;64.60
70068;DHT22;57425;51.616;6.680;2023-05-17T08:16:56;13.50;64.50
70068;DHT22;57425;51.616;6.680;2023-05-17T08:19:21;13.50;63.80
70068;DHT22;57425;51.616;6.680;2023-05-17T08:21:47;13.50;64.10
70068;DHT22;57425;51.616;6.680;2023-05-17T08:24:13;13.60;64.30
70068;DHT22;57425;51.616;6.680;2023-05-17T08:26:39;13.60;64.60
70068;DHT22;57425;51.616;6.680;2023-05-17T08:29:05;13.60;65.10
70068;DHT22;57425;51.616;6.680;2023-05-17T08:31:31;13.60;64.40
70068;DHT22;57425;51.616;6.680;2023-05-17T08:33:57;13.60;63.80
70068;DHT22;57425;51.616;6.680;2023-05-17T08:36:23;13.70;63.90
70068;DHT22;57425;51.616;6.680;2023-05-17T08:38:49;13.70;63.20
70068;DHT22;57425;51.616;6.680;2023-05-17T08:41:14;13.70;63.40
70068;DHT22;57425;51.616;6.680;2023-05-17T08:43:40;13.70;63.40
70068;DHT22;57425;51.616;6.680;2023-05-17T08:46:08;13.70;62.40
70068;DHT22;57425;51.616;6.680;2023-05-17T08:48:34;13.70;62.50
70068;DHT22;57425;51.616;6.680;2023-05-17T08:51:01;13.80;62.90
70068;DHT22;57425;51.616;6.680;2023-05-17T08:53:28;13.80;63.10
70068;DHT22;57425;51.616;6.680;2023-05-17T08:55:58;13.80;63.10
70068;DHT22;57425;51.616;6.680;2023-05-17T08:58:26;13.80;63.00
70068;DHT22;57425;51.616;6.680;2023-05-17T09:00:57;13.80;63.20
70068;DHT22;57425;51.616;6.680;2023-05-17T09:03:24;13.80;62.40
70068;DHT22;57425;51.616;6.680;2023-05-17T09:05:51;13.90;61.90
70068;DHT22;57425;51.616;6.680;2023-05-17T09:08:20;13.90;61.90
70068;DHT22;57425;51.616;6.680;2023-05-17T09:10:46;13.90;61.90
70068;DHT22;57425;51.616;6.680;2023-05-17T09:13:12;13.90;61.80
70068;DHT22;57425;51.616;6.680;2023-05-17T09:15:46;13.90;62.10
70068;DHT22;57425;51.616;6.680;2023-05-17T09:18:11;14.00;61.60
70068;DHT22;57425;51.616;6.680;2023-05-17T09:20:38;14.00;61.60
70068;DHT22;57425;51.616;6.680;2023-05-17T09:23:09;14.00;62.00
70068;DHT22;57425;51.616;6.680;2023-05-17T09:25:37;14.00;61.50
70068;DHT22;57425;51.616;6.680;2023-05-17T09:28:06;14.00;61.90
70068;DHT22;57425;51.616;6.680;2023-05-17T09:30:33;14.00;61.50
70068;DHT22;57425;51.616;6.680;2023-05-17T09:35:32;14.10;61.00
70068;DHT22;57425;51.616;6.680;2023-05-17T09:38:25;14.10;61.20
70068;DHT22;57425;51.616;6.680;2023-05-17T09:40:52;14.10;60.70
70068;DHT22;57425;51.616;6.680;2023-05-17T09:43:23;14.10;60.90
70068;DHT22;57425;51.616;6.680;2023-05-17T09:45:56;14.10;60.50
70068;DHT22;57425;51.616;6.680;2023-05-17T09:48:24;14.20;60.20
70068;DHT22;57425;51.616;6.680;2023-05-17T09:50:52;14.20;61.00
70068;DHT22;57425;51.616;6.680;2023-05-17T09:53:36;14.20;59.90
70068;DHT22;57425;51.616;6.680;2023-05-17T09:56:05;14.20;59.40
70068;DHT22;57425;51.616;6.680;2023-05-17T09:58:32;14.20;59.20
70068;DHT22;57425;51.616;6.680;2023-05-17T10:00:59;14.20;59.30
70068;DHT22;57425;51.616;6.680;2023-05-17T10:03:26;14.20;59.20
70068;DHT22;57425;51.616;6.680;2023-05-17T10:05:54;14.30;59.20
70068;DHT22;57425;51.616;6.680;2023-05-17T10:08:22;14.30;59.00
70068;DHT22;57425;51.616;6.680;2023-05-17T10:10:52;14.30;58.90
70068;DHT22;57425;51.616;6.680;2023-05-17T10:13:20;14.30;59.10
70068;DHT22;57425;51.616;6.680;2023-05-17T10:15:47;14.30;58.70
70068;DHT22;57425;51.616;6.680;2023-05-17T10:18:13;14.40;58.80
70068;DHT22;57425;51.616;6.680;2023-05-17T10:20:39;14.40;58.70
70068;DHT22;57425;51.616;6.680;2023-05-17T10:23:06;14.40;59.30
70068;DHT22;57425;51.616;6.680;2023-05-17T10:25:32;14.40;58.80
70068;DHT22;57425;51.616;6.680;2023-05-17T10:28:00;14.40;58.20
70068;DHT22;57425;51.616;6.680;2023-05-17T10:30:27;14.40;57.30
70068;DHT22;57425;51.616;6.680;2023-05-17T10:32:53;14.50;57.70
70068;DHT22;57425;51.616;6.680;2023-05-17T10:35:20;14.50;57.80
70068;DHT22;57425;51.616;6.680;2023-05-17T10:37:46;14.50;58.00
70068;DHT22;57425;51.616;6.680;2023-05-17T10:40:11;14.50;58.00
70068;DHT22;57425;51.616;6.680;2023-05-17T10:42:46;14.50;58.00
70068;DHT22;57425;51.616;6.680;2023-05-17T10:45:19;14.60;57.80
70068;DHT22;57425;51.616;6.680;2023-05-17T10:47:46;14.60;57.80
70068;DHT22;57425;51.616;6.680;2023-05-17T10:50:13;14.60;57.70
70068;DHT22;57425;51.616;6.680;2023-05-17T10:52:46;14.60;57.70
70068;DHT22;57425;51.616;6.680;2023-05-17T10:55:12;14.70;58.10
70068;DHT22;57425;51.616;6.680;2023-05-17T10:57:37;14.60;58.40
70068;DHT22;57425;51.616;6.680;2023-05-17T11:00:07;14.70;58.30
70068;DHT22;57425;51.616;6.680;2023-05-17T11:02:39;14.70;58.40
70068;DHT22;57425;51.616;6.680;2023-05-17T11:05:06;14.70;57.50
70068;DHT22;57425;51.616;6.680;2023-05-17T11:07:47;14.80;57.50
70068;DHT22;57425;51.616;6.680;2023-05-17T11:10:13;14.70;57.60
70068;DHT22;57425;51.616;6.680;2023-05-17T11:12:44;14.70;57.60
70068;DHT22;57425;51.616;6.680;2023-05-17T11:15:14;14.80;57.40
70068;DHT22;57425;51.616;6.680;2023-05-17T11:23:04;14.90;57.50
70068;DHT22;57425;51.616;6.680;2023-05-17T11:27:58;14.90;57.60
70068;DHT22;57425;51.616;6.680;2023-05-17T11:30:25;14.90;57.20
70068;DHT22;57425;51.616;6.680;2023-05-17T11:32:58;14.90;56.70
70068;DHT22;57425;51.616;6.680;2023-05-17T11:35:43;15.00;56.70
70068;DHT22;57425;51.616;6.680;2023-05-17T11:38:27;15.00;55.80
70068;DHT22;57425;51.616;6.680;2023-05-17T11:40:55;15.00;56.70
70068;DHT22;57425;51.616;6.680;2023-05-17T11:43:23;15.00;56.90
70068;DHT22;57425;51.616;6.680;2023-05-17T11:45:52;15.00;57.40
70068;DHT22;57425;51.616;6.680;2023-05-17T11:48:19;15.00;57.70
70068;DHT22;57425;51.616;6.680;2023-05-17T11:50:47;15.10;57.60
70068;DHT22;57425;51.616;6.680;2023-05-17T11:53:14;15.10;58.10
70068;DHT22;57425;51.616;6.680;2023-05-17T11:55:42;15.10;57.20
70068;DHT22;57425;51.616;6.680;2023-05-17T11:58:09;15.10;57.20
70068;DHT22;57425;51.616;6.680;2023-05-17T12:00:37;15.20;57.20
70068;DHT22;57425;51.616;6.680;2023-05-17T12:03:22;15.20;57.60
70068;DHT22;57425;51.616;6.680;2023-05-17T12:05:50;15.20;55.90
70068;DHT22;57425;51.616;6.680;2023-05-17T12:08:18;15.20;56.00
70068;DHT22;57425;51.616;6.680;2023-05-17T12:10:49;15.20;55.80
70068;DHT22;57425;51.616;6.680;2023-05-17T12:13:16;15.30;56.00
70068;DHT22;57425;51.616;6.680;2023-05-17T12:15:51;15.30;55.30
70068;DHT22;57425;51.616;6.680;2023-05-17T12:18:17;15.30;55.30
70068;DHT22;57425;51.616;6.680;2023-05-17T12:20:57;15.30;56.10
70068;DHT22;57425;51.616;6.680;2023-05-17T12:23:31;15.30;55.50
70068;DHT22;57425;51.616;6.680;2023-05-17T12:26:11;15.30;55.60
70068;DHT22;57425;51.616;6.680;2023-05-17T12:28:40;15.30;55.50
70068;DHT22;57425;51.616;6.680;2023-05-17T12:31:11;15.30;56.10
70068;DHT22;57425;51.616;6.680;2023-05-17T12:33:39;15.30;56.20
70068;DHT22;57425;51.616;6.680;2023-05-17T12:36:10;15.40;56.50
70068;DHT22;57425;51.616;6.680;2023-05-17T12:38:39;15.40;56.40
70068;DHT22;57425;51.616;6.680;2023-05-17T12:41:07;15.40;56.40
70068;DHT22;57425;51.616;6.680;2023-05-17T12:43:33;15.50;55.80
70068;DHT22;57425;51.616;6.680;2023-05-17T12:46:05;15.50;55.90
70068;DHT22;57425;51.616;6.680;2023-05-17T12:48:41;15.50;55.60
70068;DHT22;57425;51.616;6.680;2023-05-17T12:51:18;15.50;56.10
70068;DHT22;57425;51.616;6.680;2023-05-17T12:56:17;15.60;55.80
70068;DHT22;57425;51.616;6.680;2023-05-17T12:58:46;15.60;56.00
70068;DHT22;57425;51.616;6.680;2023-05-17T13:01:34;15.60;56.10
70068;DHT22;57425;51.616;6.680;2023-05-17T13:04:01;15.60;55.90
70068;DHT22;57425;51.616;6.680;2023-05-17T13:06:27;15.60;56.10
70068;DHT22;57425;51.616;6.680;2023-05-17T13:08:59;15.60;55.20
70068;DHT22;57425;51.616;6.680;2023-05-17T13:11:26;15.70;54.70
70068;DHT22;57425;51.616;6.680;2023-05-17T13:13:51;15.70;55.10
70068;DHT22;57425;51.616;6.680;2023-05-17T13:16:27;15.60;54.50
70068;DHT22;57425;51.616;6.680;2023-05-17T13:18:53;15.70;53.70
70068;DHT22;57425;51.616;6.680;2023-05-17T13:21:20;15.70;54.90
70068;DHT22;57425;51.616;6.680;2023-05-17T13:23:47;15.70;54.70
70068;DHT22;57425;51.616;6.680;2023-05-17T13:26:14;15.70;54.80
70068;DHT22;57425;51.616;6.680;2023-05-17T13:28:40;15.80;54.60
70068;DHT22;57425;51.616;6.680;2023-05-17T13:31:07;15.80;55.20
70068;DHT22;57425;51.616;6.680;2023-05-17T13:33:32;15.80;55.20
70068;DHT22;57425;51.616;6.680;2023-05-17T13:35:58;15.80;55.60
70068;DHT22;57425;51.616;6.680;2023-05-17T13:40:51;15.80;53.80
70068;DHT22;57425;51.616;6.680;2023-05-17T13:43:16;15.80;54.80
70068;DHT22;57425;51.616;6.680;2023-05-17T13:45:43;15.80;54.50
70068;DHT22;57425;51.616;6.680;2023-05-17T13:48:09;15.90;54.70
70068;DHT22;57425;51.616;6.680;2023-05-17T13:50:35;15.90;54.50
70068;DHT22;57425;51.616;6.680;2023-05-17T13:53:01;15.90;53.30
70068;DHT22;57425;51.616;6.680;2023-05-17T13:55:27;15.90;54.00
70068;DHT22;57425;51.616;6.680;2023-05-17T13:57:53;15.90;54.60
70068;DHT22;57425;51.616;6.680;2023-05-17T14:00:19;16.00;55.50
70068;DHT22;57425;51.616;6.680;2023-05-17T14:02:45;15.90;55.20
70068;DHT22;57425;51.616;6.680;2023-05-17T14:05:11;16.00;55.00
70068;DHT22;57425;51.616;6.680;2023-05-17T14:07:36;16.00;54.10
70068;DHT22;57425;51.616;6.680;2023-05-17T14:10:10;16.00;54.30
70068;DHT22;57425;51.616;6.680;2023-05-17T14:12:39;16.10;54.20
70068;DHT22;57425;51.616;6.680;2023-05-17T14:15:07;16.10;54.30
70068;DHT22;57425;51.616;6.680;2023-05-17T14:17:33;16.10;54.10
70068;DHT22;57425;51.616;6.680;2023-05-17T14:19:59;16.10;54.80
70068;DHT22;57425;51.616;6.680;2023-05-17T14:22:24;16.10;54.10
70068;DHT22;57425;51.616;6.680;2023-05-17T14:24:50;16.10;53.30
70068;DHT22;57425;51.616;6.680;2023-05-17T14:27:15;16.10;53.50
70068;DHT22;57425;51.616;6.680;2023-05-17T14:29:41;16.10;53.60
70068;DHT22;57425;51.616;6.680;2023-05-17T14:32:07;16.10;53.80
70068;DHT22;57425;51.616;6.680;2023-05-17T14:34:32;16.10;54.20
70068;DHT22;57425;51.616;6.680;2023-05-17T14:36:58;16.20;54.80
70068;DHT22;57425;51.616;6.680;2023-05-17T14:39:23;16.20;55.30
70068;DHT22;57425;51.616;6.680;2023-05-17T14:41:49;16.20;54.90
70068;DHT22;57425;51.616;6.680;2023-05-17T14:44:15;16.20;55.20
70068;DHT22;57425;51.616;6.680;2023-05-17T14:46:40;16.30;54.90
70068;DHT22;57425;51.616;6.680;2023-05-17T14:49:06;16.30;55.70
70068;DHT22;57425;51.616;6.680;2023-05-17T14:51:32;16.30;55.80
70068;DHT22;57425;51.616;6.680;2023-05-17T14:53:57;16.30;55.70
70068;DHT22;57425;51.616;6.680;2023-05-17T14:56:23;16.30;55.60
70068;DHT22;57425;51.616;6.680;2023-05-17T14:58:49;16.30;55.00
70068;DHT22;57425;51.616;6.680;2023-05-17T15:01:15;16.30;54.90
70068;DHT22;57425;51.616;6.680;2023-05-17T15:03:41;16.30;54.80
70068;DHT22;57425;51.616;6.680;2023-05-17T15:06:07;16.40;55.80
70068;DHT22;57425;51.616;6.680;2023-05-17T15:08:33;16.30;55.80
70068;DHT22;57425;51.616;6.680;2023-05-17T15:10:59;16.30;54.60
70068;DHT22;57425;51.616;6.680;2023-05-17T15:13:25;16.30;54.30
70068;DHT22;57425;51.616;6.680;2023-05-17T15:15:50;16.30;54.70
70068;DHT22;57425;51.616;6.680;2023-05-17T15:18:17;16.30;54.60
70068;DHT22;57425;51.616;6.680;2023-05-17T15:20:43;16.30;55.10
70068;DHT22;57425;51.616;6.680;2023-05-17T15:23:08;16.30;55.30
70068;DHT22;57425;51.616;6.680;2023-05-17T15:25:34;16.30;55.20
70068;DHT22;57425;51.616;6.680;2023-05-17T15:28:00;16.30;55.50
70068;DHT22;57425;51.616;6.680;2023-05-17T15:30:26;16.30;55.20
70068;DHT22;57425;51.616;6.680;2023-05-17T15:32:53;16.30;54.90
70068;DHT22;57425;51.616;6.680;2023-05-17T15:35:19;16.30;54.40
70068;DHT22;57425;51.616;6.680;2023-05-17T15:37:46;16.40;64.90
70068;DHT22;57425;51.616;6.680;2023-05-17T15:40:12;16.40;54.30
70068;DHT22;57425;51.616;6.680;2023-05-17T15:42:38;16.40;54.70
70068;DHT22;57425;51.616;6.680;2023-05-17T15:45:05;16.40;54.50
70068;DHT22;57425;51.616;6.680;2023-05-17T15:47:31;16.40;54.20
70068;DHT22;57425;51.616;6.680;2023-05-17T15:49:58;16.40;53.80
70068;DHT22;57425;51.616;6.680;2023-05-17T15:52:23;16.50;53.90
70068;DHT22;57425;51.616;6.680;2023-05-17T15:54:49;16.50;58.80
70068;DHT22;57425;51.616;6.680;2023-05-17T15:57:15;16.60;69.20
70068;DHT22;57425;51.616;6.680;2023-05-17T16:02:07;16.70;58.40
70068;DHT22;57425;51.616;6.680;2023-05-17T16:04:32;16.60;53.00
70068;DHT22;57425;51.616;6.680;2023-05-17T16:06:58;16.60;76.90
70068;DHT22;57425;51.616;6.680;2023-05-17T16:09:24;16.60;79.30
70068;DHT22;57425;51.616;6.680;2023-05-17T16:11:50;16.70;80.70